sensor_id;sensor_type;location;lat;lon;timestamp;temperature;humidity
78619;DHT22;67941;52.506;5.470;2023-07-08T00:00:58;19.00;56.90
78619;DHT22;67941;52.506;5.470;2023-07-08T00:03:27;19.00;57.00
78619;DHT22;67941;52.506;5.470;2023-07-08T00:05:56;18.90;57.10
78619;DHT22;67941;52.506;5.470;2023-07-08T00:08:25;18.90;57.20
78619;DHT22;67941;52.506;5.470;2023-07-08T00:10:55;18.90;57.30
78619;DHT22;67941;52.506;5.470;2023-07-08T00:13:24;18.80;57.30
78619;DHT22;67941;52.506;5.470;2023-07-08T00:15:55;18.80;57.40
78619;DHT22;67941;52.506;5.470;2023-07-08T00:18:24;18.70;57.50
78619;DHT22;67941;52.506;5.470;2023-07-08T00:20:54;18.70;57.50
78619;DHT22;67941;52.506;5.470;2023-07-08T00:23:24;18.70;57.60
78619;DHT22;67941;52.506;5.470;2023-07-08T00:25:53;18.60;57.80
78619;DHT22;67941;52.506;5.470;2023-07-08T00:28:22;18.60;57.80
78619;DHT22;67941;52.506;5.470;2023-07-08T00:30:55;18.60;57.90
78619;DHT22;67941;52.506;5.470;2023-07-08T00:33:24;18.60;58.00
78619;DHT22;67941;52.506;5.470;2023-07-08T00:35:53;18.50;58.00
78619;DHT22;67941;52.506;5.470;2023-07-08T00:38:23;18.50;58.00
78619;DHT22;67941;52.506;5.470;2023-07-08T00:40:58;18.50;58.10
78619;DHT22;67941;52.506;5.470;2023-07-08T00:43:35;18.50;58.20
78619;DHT22;67941;52.506;5.470;2023-07-08T00:46:18;18.40;58.20
78619;DHT22;67941;52.506;5.470;2023-07-08T00:48:53;18.40;58.40
78619;DHT22;67941;52.506;5.470;2023-07-08T00:51:22;18.40;58.40
78619;DHT22;67941;52.506;5.470;2023-07-08T00:53:52;18.30;58.40
78619;DHT22;67941;52.506;5.470;2023-07-08T00:56:24;18.30;58.40
78619;DHT22;67941;52.506;5.470;2023-07-08T00:58:57;18.30;58.50
78619;DHT22;67941;52.506;5.470;2023-07-08T01:01:32;18.30;58.60
78619;DHT22;67941;52.506;5.470;2023-07-08T01:04:08;18.30;58.70
78619;DHT22;67941;52.506;5.470;2023-07-08T01:06:43;18.30;58.70
78619;DHT22;67941;52.506;5.470;2023-07-08T01:09:14;18.30;58.70
78619;DHT22;67941;52.506;5.470;2023-07-08T01:11:44;18.20;58.80
78619;DHT22;67941;52.506;5.470;2023-07-08T01:14:18;18.20;58.90
78619;DHT22;67941;52.506;5.470;2023-07-08T01:16:50;18.20;58.90
78619;DHT22;67941;52.506;5.470;2023-07-08T01:19:21;18.20;59.00
78619;DHT22;67941;52.506;5.470;2023-07-08T01:22:02;18.10;59.00
78619;DHT22;67941;52.506;5.470;2023-07-08T01:24:33;18.10;59.10
78619;DHT22;67941;52.506;5.470;2023-07-08T01:27:07;18.10;59.10
78619;DHT22;67941;52.506;5.470;2023-07-08T01:29:36;18.10;59.20
78619;DHT22;67941;52.506;5.470;2023-07-08T01:32:06;18.00;59.30
78619;DHT22;67941;52.506;5.470;2023-07-08T01:34:44;18.00;59.30
78619;DHT22;67941;52.506;5.470;2023-07-08T01:37:31;18.00;59.40
78619;DHT22;67941;52.506;5.470;2023-07-08T01:40:15;18.00;59.40
78619;DHT22;67941;52.506;5.470;2023-07-08T01:42:45;18.00;59.50
78619;DHT22;67941;52.506;5.470;2023-07-08T01:45:16;18.00;59.50
78619;DHT22;67941;52.506;5.470;2023-07-08T01:47:47;18.00;59.60
78619;DHT22;67941;52.506;5.470;2023-07-08T01:50:18;18.00;59.70
78619;DHT22;67941;52.506;5.470;2023-07-08T01:52:52;18.00;59.70
78619;DHT22;67941;52.506;5.470;2023-07-08T01:55:22;17.90;59.80
78619;DHT22;67941;52.506;5.470;2023-07-08T01:57:52;17.80;59.80
78619;DHT22;67941;52.506;5.470;2023-07-08T02:00:22;17.80;59.80
78619;DHT22;67941;52.506;5.470;2023-07-08T02:02:52;17.80;60.00
78619;DHT22;67941;52.506;5.470;2023-07-08T02:05:22;17.80;60.00
78619;DHT22;67941;52.506;5.470;2023-07-08T02:07:53;17.80;60.00
78619;DHT22;67941;52.506;5.470;2023-07-08T02:10:22;17.70;60.10
78619;DHT22;67941;52.506;5.470;2023-07-08T02:12:51;17.60;60.10
78619;DHT22;67941;52.506;5.470;2023-07-08T02:15:20;17.60;60.20
78619;DHT22;67941;52.506;5.470;2023-07-08T02:17:49;17.50;60.30
78619;DHT22;67941;52.506;5.470;2023-07-08T02:20:18;17.50;60.30
78619;DHT22;67941;52.506;5.470;2023-07-08T02:22:46;17.50;60.40
78619;DHT22;67941;52.506;5.470;2023-07-08T02:25:18;17.50;60.50
78619;DHT22;67941;52.506;5.470;2023-07-08T02:27:47;17.50;60.60
78619;DHT22;67941;52.506;5.470;2023-07-08T02:30:16;17.40;60.60
78619;DHT22;67941;52.506;5.470;2023-07-08T02:32:45;17.40;60.60
78619;DHT22;67941;52.506;5.470;2023-07-08T02:35:24;17.40;60.70
78619;DHT22;67941;52.506;5.470;2023-07-08T02:37:54;17.40;60.70
78619;DHT22;67941;52.506;5.470;2023-07-08T02:40:26;17.40;60.70
78619;DHT22;67941;52.506;5.470;2023-07-08T02:42:55;17.30;60.70
78619;DHT22;67941;52.506;5.470;2023-07-08T02:45:23;17.20;60.80
78619;DHT22;67941;52.506;5.470;2023-07-08T02:47:53;17.20;60.90
78619;DHT22;67941;52.506;5.470;2023-07-08T02:50:22;17.20;60.90
78619;DHT22;67941;52.506;5.470;2023-07-08T02:52:50;17.20;61.00
78619;DHT22;67941;52.506;5.470;2023-07-08T02:55:19;17.20;61.10
78619;DHT22;67941;52.506;5.470;2023-07-08T02:57:51;17.10;61.10
78619;DHT22;67941;52.506;5.470;2023-07-08T03:00:20;17.00;61.20
78619;DHT22;67941;52.506;5.470;2023-07-08T03:02:49;17.00;61.20
78619;DHT22;67941;52.506;5.470;2023-07-08T03:05:18;17.00;61.20
78619;DHT22;67941;52.506;5.470;2023-07-08T03:07:47;17.00;61.20
78619;DHT22;67941;52.506;5.470;2023-07-08T03:10:16;17.00;61.30
78619;DHT22;67941;52.506;5.470;2023-07-08T03:12:45;17.00;61.40
78619;DHT22;67941;52.506;5.470;2023-07-08T03:15:16;16.90;61.40
78619;DHT22;67941;52.506;5.470;2023-07-08T03:17:45;16.90;61.50
78619;DHT22;67941;52.506;5.470;2023-07-08T03:20:15;16.90;61.50
78619;DHT22;67941;52.506;5.470;2023-07-08T03:22:43;16.90;61.60
78619;DHT22;67941;52.506;5.470;2023-07-08T03:25:12;16.80;61.60
78619;DHT22;67941;52.506;5.470;2023-07-08T03:27:47;16.80;61.70
78619;DHT22;67941;52.506;5.470;2023-07-08T03:30:20;16.80;61.70
78619;DHT22;67941;52.506;5.470;2023-07-08T03:32:50;16.80;61.80
78619;DHT22;67941;52.506;5.470;2023-07-08T03:35:21;16.80;61.80
78619;DHT22;67941;52.506;5.470;2023-07-08T03:37:51;16.70;61.90
78619;DHT22;67941;52.506;5.470;2023-07-08T03:40:20;16.70;61.90
78619;DHT22;67941;52.506;5.470;2023-07-08T03:42:49;16.70;61.90
78619;DHT22;67941;52.506;5.470;2023-07-08T03:45:20;16.70;62.00
78619;DHT22;67941;52.506;5.470;2023-07-08T03:47:49;16.70;62.00
78619;DHT22;67941;52.506;5.470;2023-07-08T03:50:20;16.70;62.10
78619;DHT22;67941;52.506;5.470;2023-07-08T03:52:51;16.70;62.10
78619;DHT22;67941;52.506;5.470;2023-07-08T03:55:23;16.70;62.10
78619;DHT22;67941;52.506;5.470;2023-07-08T03:57:52;16.70;62.10
78619;DHT22;67941;52.506;5.470;2023-07-08T04:00:24;16.70;62.20
78619;DHT22;67941;52.506;5.470;2023-07-08T04:02:53;16.70;62.20
78619;DHT22;67941;52.506;5.470;2023-07-08T04:05:23;16.70;62.20
78619;DHT22;67941;52.506;5.470;2023-07-08T04:07:53;16.70;62.20
78619;DHT22;67941;52.506;5.470;2023-07-08T04:10:22;16.80;62.30
78619;DHT22;67941;52.506;5.470;2023-07-08T04:12:51;16.80;62.30
78619;DHT22;67941;52.506;5.470;2023-07-08T04:15:19;16.80;62.40
78619;DHT22;67941;52.506;5.470;2023-07-08T04:17:54;16.90;62.40
78619;DHT22;67941;52.506;5.470;2023-07-08T04:20:24;16.90;62.50
78619;DHT22;67941;52.506;5.470;2023-07-08T04:22:53;17.00;62.50
78619;DHT22;67941;52.506;5.470;2023-07-08T04:25:22;17.00;62.60
78619;DHT22;67941;52.506;5.470;2023-07-08T04:27:51;17.10;62.60
78619;DHT22;67941;52.506;5.470;2023-07-08T04:30:23;17.20;62.60
78619;DHT22;67941;52.506;5.470;2023-07-08T04:32:54;17.30;62.70
78619;DHT22;67941;52.506;5.470;2023-07-08T04:35:24;17.40;62.70
78619;DHT22;67941;52.506;5.470;2023-07-08T04:37:54;17.50;62.80
78619;DHT22;67941;52.506;5.470;2023-07-08T04:40:23;17.60;62.80
78619;DHT22;67941;52.506;5.470;2023-07-08T04:42:52;17.80;62.70
78619;DHT22;67941;52.506;5.470;2023-07-08T04:45:21;17.90;62.70
78619;DHT22;67941;52.506;5.470;2023-07-08T04:47:50;18.00;62.60
78619;DHT22;67941;52.506;5.470;2023-07-08T04:50:21;18.00;62.50
78619;DHT22;67941;52.506;5.470;2023-07-08T04:52:50;18.10;62.40
78619;DHT22;67941;52.506;5.470;2023-07-08T04:55:19;18.20;62.50
78619;DHT22;67941;52.506;5.470;2023-07-08T04:57:48;18.60;62.40
78619;DHT22;67941;52.506;5.470;2023-07-08T05:00:17;18.90;62.20
78619;DHT22;67941;52.506;5.470;2023-07-08T05:02:47;19.40;61.90
78619;DHT22;67941;52.506;5.470;2023-07-08T05:05:16;19.90;61.50
78619;DHT22;67941;52.506;5.470;2023-07-08T05:07:48;20.30;61.20
78619;DHT22;67941;52.506;5.470;2023-07-08T05:10:18;20.60;60.90
78619;DHT22;67941;52.506;5.470;2023-07-08T05:12:47;21.00;60.60
78619;DHT22;67941;52.506;5.470;2023-07-08T05:15:16;21.30;60.40
78619;DHT22;67941;52.506;5.470;2023-07-08T05:17:45;21.60;60.20
78619;DHT22;67941;52.506;5.470;2023-07-08T05:20:15;21.70;60.00
78619;DHT22;67941;52.506;5.470;2023-07-08T05:22:47;21.70;59.80
78619;DHT22;67941;52.506;5.470;2023-07-08T05:25:17;21.50;60.00
78619;DHT22;67941;52.506;5.470;2023-07-08T05:27:47;21.40;60.10
78619;DHT22;67941;52.506;5.470;2023-07-08T05:30:17;21.30;60.10
78619;DHT22;67941;52.506;5.470;2023-07-08T05:32:46;21.10;60.20
78619;DHT22;67941;52.506;5.470;2023-07-08T05:35:15;21.10;60.30
78619;DHT22;67941;52.506;5.470;2023-07-08T05:37:47;21.40;60.20
78619;DHT22;67941;52.506;5.470;2023-07-08T05:40:16;21.80;59.90
78619;DHT22;67941;52.506;5.470;2023-07-08T05:42:45;22.20;59.50
78619;DHT22;67941;52.506;5.470;2023-07-08T05:45:14;22.60;59.20
78619;DHT22;67941;52.506;5.470;2023-07-08T05:47:43;22.90;59.00
78619;DHT22;67941;52.506;5.470;2023-07-08T05:50:12;23.30;58.70
78619;DHT22;67941;52.506;5.470;2023-07-08T05:52:41;23.50;58.30
78619;DHT22;67941;52.506;5.470;2023-07-08T05:55:12;23.80;58.20
78619;DHT22;67941;52.506;5.470;2023-07-08T05:57:41;24.00;58.00
78619;DHT22;67941;52.506;5.470;2023-07-08T06:00:11;24.20;57.80
78619;DHT22;67941;52.506;5.470;2023-07-08T06:02:41;24.20;57.80
78619;DHT22;67941;52.506;5.470;2023-07-08T06:05:10;24.20;57.80
78619;DHT22;67941;52.506;5.470;2023-07-08T06:07:39;24.10;57.90
78619;DHT22;67941;52.506;5.470;2023-07-08T06:10:08;23.90;58.00
78619;DHT22;67941;52.506;5.470;2023-07-08T06:12:41;23.60;58.20
78619;DHT22;67941;52.506;5.470;2023-07-08T06:15:10;23.30;58.50
78619;DHT22;67941;52.506;5.470;2023-07-08T06:17:40;22.90;58.80
78619;DHT22;67941;52.506;5.470;2023-07-08T06:20:09;22.60;59.10
78619;DHT22;67941;52.506;5.470;2023-07-08T06:22:38;22.30;59.30
78619;DHT22;67941;52.506;5.470;2023-07-08T06:25:08;22.00;59.40
78619;DHT22;67941;52.506;5.470;2023-07-08T06:27:39;21.80;59.50
78619;DHT22;67941;52.506;5.470;2023-07-08T06:30:09;21.60;59.50
78619;DHT22;67941;52.506;5.470;2023-07-08T06:32:38;21.50;59.40
78619;DHT22;67941;52.506;5.470;2023-07-08T06:35:08;21.40;59.30
78619;DHT22;67941;52.506;5.470;2023-07-08T06:37:37;21.50;59.10
78619;DHT22;67941;52.506;5.470;2023-07-08T06:40:07;21.50;59.00
78619;DHT22;67941;52.506;5.470;2023-07-08T06:42:36;21.50;58.90
78619;DHT22;67941;52.506;5.470;2023-07-08T06:45:21;21.50;58.80
78619;DHT22;67941;52.506;5.470;2023-07-08T06:47:50;21.40;58.70
78619;DHT22;67941;52.506;5.470;2023-07-08T06:50:19;21.30;58.80
78619;DHT22;67941;52.506;5.470;2023-07-08T06:52:48;21.10;58.80
78619;DHT22;67941;52.506;5.470;2023-07-08T06:55:17;21.10;58.90
78619;DHT22;67941;52.506;5.470;2023-07-08T06:57:46;21.00;58.90
78619;DHT22;67941;52.506;5.470;2023-07-08T07:00:15;21.00;59.00
78619;DHT22;67941;52.506;5.470;2023-07-08T07:02:47;20.90;59.00
78619;DHT22;67941;52.506;5.470;2023-07-08T07:05:16;20.90;59.10
78619;DHT22;67941;52.506;5.470;2023-07-08T07:07:45;21.00;59.10
78619;DHT22;67941;52.506;5.470;2023-07-08T07:10:14;21.00;59.10
78619;DHT22;67941;52.506;5.470;2023-07-08T07:12:43;21.00;59.10
78619;DHT22;67941;52.506;5.470;2023-07-08T07:15:12;21.00;59.10
78619;DHT22;67941;52.506;5.470;2023-07-08T07:17:41;21.10;59.10
78619;DHT22;67941;52.506;5.470;2023-07-08T07:20:13;21.10;59.00
78619;DHT22;67941;52.506;5.470;2023-07-08T07:22:41;21.10;59.10
78619;DHT22;67941;52.506;5.470;2023-07-08T07:25:10;21.20;59.00
78619;DHT22;67941;52.506;5.470;2023-07-08T07:27:39;21.30;59.00
78619;DHT22;67941;52.506;5.470;2023-07-08T07:30:09;21.40;59.00
78619;DHT22;67941;52.506;5.470;2023-07-08T07:32:40;21.40;58.90
78619;DHT22;67941;52.506;5.470;2023-07-08T07:35:13;21.50;58.90
78619;DHT22;67941;52.506;5.470;2023-07-08T07:37:43;21.50;58.90
78619;DHT22;67941;52.506;5.470;2023-07-08T07:40:13;21.50;58.80
78619;DHT22;67941;52.506;5.470;2023-07-08T07:42:43;21.70;58.90
78619;DHT22;67941;52.506;5.470;2023-07-08T07:45:13;21.70;58.80
78619;DHT22;67941;52.506;5.470;2023-07-08T07:47:42;21.80;58.80
78619;DHT22;67941;52.506;5.470;2023-07-08T07:50:13;21.90;58.80
78619;DHT22;67941;52.506;5.470;2023-07-08T07:52:42;21.90;58.80
78619;DHT22;67941;52.506;5.470;2023-07-08T07:55:11;22.00;58.70
78619;DHT22;67941;52.506;5.470;2023-07-08T07:57:40;22.10;58.70
78619;DHT22;67941;52.506;5.470;2023-07-08T08:00:12;22.20;58.70
78619;DHT22;67941;52.506;5.470;2023-07-08T08:02:44;22.20;58.70
78619;DHT22;67941;52.506;5.470;2023-07-08T08:05:15;22.30;58.70
78619;DHT22;67941;52.506;5.470;2023-07-08T08:07:44;22.40;58.60
78619;DHT22;67941;52.506;5.470;2023-07-08T08:10:14;22.50;58.60
78619;DHT22;67941;52.506;5.470;2023-07-08T08:12:43;22.50;58.50
78619;DHT22;67941;52.506;5.470;2023-07-08T08:15:14;22.50;58.50
78619;DHT22;67941;52.506;5.470;2023-07-08T08:17:43;22.60;58.50
78619;DHT22;67941;52.506;5.470;2023-07-08T08:20:18;22.70;58.50
78619;DHT22;67941;52.506;5.470;2023-07-08T08:22:47;22.80;58.40
78619;DHT22;67941;52.506;5.470;2023-07-08T08:25:16;22.80;58.40
78619;DHT22;67941;52.506;5.470;2023-07-08T08:27:46;23.00;58.30
78619;DHT22;67941;52.506;5.470;2023-07-08T08:30:14;23.10;58.30
78619;DHT22;67941;52.506;5.470;2023-07-08T08:32:43;23.20;58.30
78619;DHT22;67941;52.506;5.470;2023-07-08T08:35:12;23.20;58.20
78619;DHT22;67941;52.506;5.470;2023-07-08T08:37:44;23.30;58.10
78619;DHT22;67941;52.506;5.470;2023-07-08T08:40:15;23.40;58.00
78619;DHT22;67941;52.506;5.470;2023-07-08T08:42:51;23.50;57.90
78619;DHT22;67941;52.506;5.470;2023-07-08T08:45:22;23.60;58.00
78619;DHT22;67941;52.506;5.470;2023-07-08T08:47:56;23.60;57.90
78619;DHT22;67941;52.506;5.470;2023-07-08T08:50:32;23.70;57.90
78619;DHT22;67941;52.506;5.470;2023-07-08T08:53:09;23.80;57.80
78619;DHT22;67941;52.506;5.470;2023-07-08T08:55:40;23.90;57.70
78619;DHT22;67941;52.506;5.470;2023-07-08T08:58:18;24.00;57.70
78619;DHT22;67941;52.506;5.470;2023-07-08T09:00:54;24.00;57.60
78619;DHT22;67941;52.506;5.470;2023-07-08T09:03:34;24.10;57.60
78619;DHT22;67941;52.506;5.470;2023-07-08T09:06:10;24.20;57.50
78619;DHT22;67941;52.506;5.470;2023-07-08T09:08:42;24.20;57.50
78619;DHT22;67941;52.506;5.470;2023-07-08T09:11:23;24.40;57.40
78619;DHT22;67941;52.506;5.470;2023-07-08T09:13:54;24.40;57.30
78619;DHT22;67941;52.506;5.470;2023-07-08T09:16:29;24.50;57.20
78619;DHT22;67941;52.506;5.470;2023-07-08T09:19:08;24.60;57.20
78619;DHT22;67941;52.506;5.470;2023-07-08T09:21:45;24.70;57.20
78619;DHT22;67941;52.506;5.470;2023-07-08T09:24:24;24.80;57.10
78619;DHT22;67941;52.506;5.470;2023-07-08T09:26:56;24.80;57.00
78619;DHT22;67941;52.506;5.470;2023-07-08T09:29:26;25.00;57.00
78619;DHT22;67941;52.506;5.470;2023-07-08T09:31:56;25.00;56.90
78619;DHT22;67941;52.506;5.470;2023-07-08T09:34:37;25.00;56.80
78619;DHT22;67941;52.506;5.470;2023-07-08T09:37:22;25.10;56.70
78619;DHT22;67941;52.506;5.470;2023-07-08T09:39:55;25.20;56.60
78619;DHT22;67941;52.506;5.470;2023-07-08T09:42:27;25.30;56.60
78619;DHT22;67941;52.506;5.470;2023-07-08T09:44:59;25.30;56.50
78619;DHT22;67941;52.506;5.470;2023-07-08T09:47:34;25.40;56.50
78619;DHT22;67941;52.506;5.470;2023-07-08T09:50:17;25.50;56.40
78619;DHT22;67941;52.506;5.470;2023-07-08T09:52:47;25.60;56.40
78619;DHT22;67941;52.506;5.470;2023-07-08T09:55:19;25.60;56.30
78619;DHT22;67941;52.506;5.470;2023-07-08T09:57:51;25.80;56.20
78619;DHT22;67941;52.506;5.470;2023-07-08T10:00:28;25.80;56.10
78619;DHT22;67941;52.506;5.470;2023-07-08T10:03:04;25.90;56.00
78619;DHT22;67941;52.506;5.470;2023-07-08T10:05:37;26.00;55.90
78619;DHT22;67941;52.506;5.470;2023-07-08T10:08:16;26.00;55.90
78619;DHT22;67941;52.506;5.470;2023-07-08T10:13:38;26.20;55.80
78619;DHT22;67941;52.506;5.470;2023-07-08T10:16:13;26.40;55.80
78619;DHT22;67941;52.506;5.470;2023-07-08T10:18:43;26.40;55.70
78619;DHT22;67941;52.506;5.470;2023-07-08T10:21:17;26.50;55.60
78619;DHT22;67941;52.506;5.470;2023-07-08T10:23:58;26.60;55.50
78619;DHT22;67941;52.506;5.470;2023-07-08T10:26:33;26.70;55.50
78619;DHT22;67941;52.506;5.470;2023-07-08T10:29:13;26.80;55.40
78619;DHT22;67941;52.506;5.470;2023-07-08T10:31:50;26.90;55.30
78619;DHT22;67941;52.506;5.470;2023-07-08T10:34:36;27.00;55.30
78619;DHT22;67941;52.506;5.470;2023-07-08T10:37:12;27.10;55.10
78619;DHT22;67941;52.506;5.470;2023-07-08T10:42:47;27.20;55.00
78619;DHT22;67941;52.506;5.470;2023-07-08T10:45:25;27.30;54.80
78619;DHT22;67941;52.506;5.470;2023-07-08T10:48:01;27.40;54.80
78619;DHT22;67941;52.506;5.470;2023-07-08T10:50:43;27.40;54.80
78619;DHT22;67941;52.506;5.470;2023-07-08T10:53:37;27.50;54.80
78619;DHT22;67941;52.506;5.470;2023-07-08T10:56:16;27.50;54.70
78619;DHT22;67941;52.506;5.470;2023-07-08T10:59:06;27.50;54.70
78619;DHT22;67941;52.506;5.470;2023-07-08T11:01:47;27.70;54.70
78619;DHT22;67941;52.506;5.470;2023-07-08T11:04:39;27.80;54.60
78619;DHT22;67941;52.506;5.470;2023-07-08T11:07:19;27.90;54.50
78619;DHT22;67941;52.506;5.470;2023-07-08T11:09:56;28.10;54.40
78619;DHT22;67941;52.506;5.470;2023-07-08T11:12:29;28.10;54.20
78619;DHT22;67941;52.506;5.470;2023-07-08T11:15:08;28.30;54.10
78619;DHT22;67941;52.506;5.470;2023-07-08T11:17:45;28.30;53.90
78619;DHT22;67941;52.506;5.470;2023-07-08T11:20:19;28.50;53.80
78619;DHT22;67941;52.506;5.470;2023-07-08T11:22:54;28.50;53.70
78619;DHT22;67941;52.506;5.470;2023-07-08T11:25:26;28.60;53.60
78619;DHT22;67941;52.506;5.470;2023-07-08T11:27:58;28.60;53.50
78619;DHT22;67941;52.506;5.470;2023-07-08T11:30:32;28.60;53.40
78619;DHT22;67941;52.506;5.470;2023-07-08T11:33:10;28.70;53.30
78619;DHT22;67941;52.506;5.470;2023-07-08T11:35:42;28.80;53.10
78619;DHT22;67941;52.506;5.470;2023-07-08T11:38:14;28.90;52.90
78619;DHT22;67941;52.506;5.470;2023-07-08T11:41:00;28.90;52.60
78619;DHT22;67941;52.506;5.470;2023-07-08T11:43:35;29.00;52.50
78619;DHT22;67941;52.506;5.470;2023-07-08T11:46:15;29.10;52.30
78619;DHT22;67941;52.506;5.470;2023-07-08T11:48:49;29.20;52.10
78619;DHT22;67941;52.506;5.470;2023-07-08T11:51:22;29.30;52.00
78619;DHT22;67941;52.506;5.470;2023-07-08T11:53:59;29.40;51.80
78619;DHT22;67941;52.506;5.470;2023-07-08T11:56:46;29.50;51.70
78619;DHT22;67941;52.506;5.470;2023-07-08T11:59:18;29.50;51.50
78619;DHT22;67941;52.506;5.470;2023-07-08T12:01:53;29.60;51.40
78619;DHT22;67941;52.506;5.470;2023-07-08T12:04:29;29.70;51.20
78619;DHT22;67941;52.506;5.470;2023-07-08T12:07:06;29.70;51.00
78619;DHT22;67941;52.506;5.470;2023-07-08T12:09:39;29.80;50.80
78619;DHT22;67941;52.506;5.470;2023-07-08T12:12:19;29.90;50.60
78619;DHT22;67941;52.506;5.470;2023-07-08T12:14:50;30.00;50.60
78619;DHT22;67941;52.506;5.470;2023-07-08T12:17:21;30.00;50.40
78619;DHT22;67941;52.506;5.470;2023-07-08T12:19:51;30.10;50.20
78619;DHT22;67941;52.506;5.470;2023-07-08T12:22:20;30.10;50.10
78619;DHT22;67941;52.506;5.470;2023-07-08T12:24:49;30.20;50.00
78619;DHT22;67941;52.506;5.470;2023-07-08T12:27:18;30.30;49.90
78619;DHT22;67941;52.506;5.470;2023-07-08T12:29:47;30.30;49.80
78619;DHT22;67941;52.506;5.470;2023-07-08T12:32:33;30.40;49.70
78619;DHT22;67941;52.506;5.470;2023-07-08T12:35:03;30.50;49.50
78619;DHT22;67941;52.506;5.470;2023-07-08T12:37:32;30.50;49.50
78619;DHT22;67941;52.506;5.470;2023-07-08T12:40:03;30.50;49.40
78619;DHT22;67941;52.506;5.470;2023-07-08T12:42:34;30.60;49.30
78619;DHT22;67941;52.506;5.470;2023-07-08T12:45:13;30.60;49.20
78619;DHT22;67941;52.506;5.470;2023-07-08T12:47:45;30.70;49.10
78619;DHT22;67941;52.506;5.470;2023-07-08T12:50:15;30.70;49.10
78619;DHT22;67941;52.506;5.470;2023-07-08T12:52:45;30.70;49.00
78619;DHT22;67941;52.506;5.470;2023-07-08T12:55:15;30.80;48.80
78619;DHT22;67941;52.506;5.470;2023-07-08T12:57:45;30.80;48.80
78619;DHT22;67941;52.506;5.470;2023-07-08T13:00:24;30.90;48.80
78619;DHT22;67941;52.506;5.470;2023-07-08T13:03:01;30.90;48.70
78619;DHT22;67941;52.506;5.470;2023-07-08T13:05:32;30.90;48.60
78619;DHT22;67941;52.506;5.470;2023-07-08T13:08:01;31.00;48.60
78619;DHT22;67941;52.506;5.470;2023-07-08T13:10:31;31.10;48.50
78619;DHT22;67941;52.506;5.470;2023-07-08T13:13:04;31.20;48.40
78619;DHT22;67941;52.506;5.470;2023-07-08T13:15:38;31.20;48.30
78619;DHT22;67941;52.506;5.470;2023-07-08T13:18:14;31.30;48.20
78619;DHT22;67941;52.506;5.470;2023-07-08T13:20:46;31.30;48.10
78619;DHT22;67941;52.506;5.470;2023-07-08T13:23:17;31.30;48.00
78619;DHT22;67941;52.506;5.470;2023-07-08T13:25:49;31.40;47.90
78619;DHT22;67941;52.506;5.470;2023-07-08T13:28:20;31.40;47.80
78619;DHT22;67941;52.506;5.470;2023-07-08T13:30:52;31.50;47.70
78619;DHT22;67941;52.506;5.470;2023-07-08T13:33:29;31.50;47.60
78619;DHT22;67941;52.506;5.470;2023-07-08T13:36:01;31.60;47.50
78619;DHT22;67941;52.506;5.470;2023-07-08T13:38:32;31.60;47.40
78619;DHT22;67941;52.506;5.470;2023-07-08T13:41:03;31.70;47.30
78619;DHT22;67941;52.506;5.470;2023-07-08T13:43:35;31.80;47.20
78619;DHT22;67941;52.506;5.470;2023-07-08T13:46:04;31.80;47.10
78619;DHT22;67941;52.506;5.470;2023-07-08T13:48:38;31.90;47.10
78619;DHT22;67941;52.506;5.470;2023-07-08T13:51:14;31.90;47.00
78619;DHT22;67941;52.506;5.470;2023-07-08T13:53:46;32.00;46.90
78619;DHT22;67941;52.506;5.470;2023-07-08T13:56:20;32.00;46.80
78619;DHT22;67941;52.506;5.470;2023-07-08T13:58:51;32.00;46.70
78619;DHT22;67941;52.506;5.470;2023-07-08T14:01:22;32.00;46.70
78619;DHT22;67941;52.506;5.470;2023-07-08T14:03:55;32.00;46.60
78619;DHT22;67941;52.506;5.470;2023-07-08T14:06:30;32.10;46.50
78619;DHT22;67941;52.506;5.470;2023-07-08T14:09:06;32.20;46.50
78619;DHT22;67941;52.506;5.470;2023-07-08T14:11:36;32.20;46.40
78619;DHT22;67941;52.506;5.470;2023-07-08T14:14:05;32.20;46.30
78619;DHT22;67941;52.506;5.470;2023-07-08T14:16:37;32.20;46.30
78619;DHT22;67941;52.506;5.470;2023-07-08T14:19:13;32.30;46.20
78619;DHT22;67941;52.506;5.470;2023-07-08T14:21:43;32.40;46.10
78619;DHT22;67941;52.506;5.470;2023-07-08T14:24:13;32.40;46.10
78619;DHT22;67941;52.506;5.470;2023-07-08T14:26:44;32.50;46.00
78619;DHT22;67941;52.506;5.470;2023-07-08T14:29:13;32.50;45.90
78619;DHT22;67941;52.506;5.470;2023-07-08T14:31:42;32.50;45.80
78619;DHT22;67941;52.506;5.470;2023-07-08T14:34:20;32.50;45.70
78619;DHT22;67941;52.506;5.470;2023-07-08T14:36:50;32.60;45.70
78619;DHT22;67941;52.506;5.470;2023-07-08T14:39:22;32.60;45.70
78619;DHT22;67941;52.506;5.470;2023-07-08T14:41:51;32.60;45.70
78619;DHT22;67941;52.506;5.470;2023-07-08T14:44:22;32.70;45.60
78619;DHT22;67941;52.506;5.470;2023-07-08T14:46:52;32.80;45.50
78619;DHT22;67941;52.506;5.470;2023-07-08T14:49:24;32.80;45.40
78619;DHT22;67941;52.506;5.470;2023-07-08T14:51:53;32.80;45.50
78619;DHT22;67941;52.506;5.470;2023-07-08T14:54:22;32.80;45.40
78619;DHT22;67941;52.506;5.470;2023-07-08T14:56:54;32.80;45.40
78619;DHT22;67941;52.506;5.470;2023-07-08T14:59:25;32.80;45.30
78619;DHT22;67941;52.506;5.470;2023-07-08T15:01:57;32.80;45.20
78619;DHT22;67941;52.506;5.470;2023-07-08T15:04:29;32.80;45.20
78619;DHT22;67941;52.506;5.470;2023-07-08T15:06:59;32.80;45.10
78619;DHT22;67941;52.506;5.470;2023-07-08T15:09:28;32.90;45.10
78619;DHT22;67941;52.506;5.470;2023-07-08T15:11:57;33.00;45.00
78619;DHT22;67941;52.506;5.470;2023-07-08T15:14:26;33.00;45.00
78619;DHT22;67941;52.506;5.470;2023-07-08T15:16:55;33.00;44.90
78619;DHT22;67941;52.506;5.470;2023-07-08T15:19:24;33.00;44.90
78619;DHT22;67941;52.506;5.470;2023-07-08T15:21:56;33.00;44.90
78619;DHT22;67941;52.506;5.470;2023-07-08T15:24:26;33.00;44.90
78619;DHT22;67941;52.506;5.470;2023-07-08T15:26:55;33.10;44.90
78619;DHT22;67941;52.506;5.470;2023-07-08T15:29:24;33.20;44.90
78619;DHT22;67941;52.506;5.470;2023-07-08T15:31:53;33.30;44.80
78619;DHT22;67941;52.506;5.470;2023-07-08T15:34:22;33.40;44.70
78619;DHT22;67941;52.506;5.470;2023-07-08T15:36:51;33.50;44.60
78619;DHT22;67941;52.506;5.470;2023-07-08T15:39:23;33.60;44.50
78619;DHT22;67941;52.506;5.470;2023-07-08T15:41:52;33.60;44.40
78619;DHT22;67941;52.506;5.470;2023-07-08T15:44:21;33.70;44.50
78619;DHT22;67941;52.506;5.470;2023-07-08T15:46:50;33.90;44.40
78619;DHT22;67941;52.506;5.470;2023-07-08T15:49:21;34.00;44.40
78619;DHT22;67941;52.506;5.470;2023-07-08T15:51:53;34.10;44.20
78619;DHT22;67941;52.506;5.470;2023-07-08T15:54:24;34.20;44.10
78619;DHT22;67941;52.506;5.470;2023-07-08T15:56:54;34.30;44.00
78619;DHT22;67941;52.506;5.470;2023-07-08T15:59:26;34.40;43.90
78619;DHT22;67941;52.506;5.470;2023-07-08T16:02:04;34.40;43.80
78619;DHT22;67941;52.506;5.470;2023-07-08T16:04:34;34.40;43.70